METAR Data
IDs: Format: Raw Decoded Include TAF

Data at: 0852 UTC 26 Jan 2020

K3D2 260755Z AUTO 30007KT 10SM OVC037 00/M02 A2977 RMK AO2 T10041016
K3D2 260715Z AUTO 30007KT 10SM BKN024 OVC033 00/M01 A2977 RMK AO2 T10031015
K3D2 260655Z AUTO 29008KT 10SM SCT030 OVC037 00/M01 A2977 RMK AO2 T10031013
K3D2 260635Z AUTO 30008KT 10SM SCT039 OVC050 00/M01 A2977 RMK AO2 T10031013
K3D2 260615Z AUTO 30006KT 10SM SCT036 OVC050 00/M01 A2977 RMK AO2 T10031012
K3D2 260555Z AUTO 30006KT 10SM SCT027 SCT036 OVC049 00/M01 A2977 RMK AO2 T10031010 10001 21003 400011003
K3D2 260535Z AUTO 30006KT 10SM SCT029 SCT036 OVC049 00/M01 A2977 RMK AO2 T10021007
K3D2 260515Z AUTO 30004KT 10SM BKN026 OVC036 00/M01 A2978 RMK AO2 T10011006
K3D2 260455Z AUTO 30006KT 10SM BKN024 OVC030 00/00 A2977 RMK AO2 T00001005
K3D2 260435Z AUTO 30005KT 10SM OVC028 00/00 A2977 RMK AO2 T00001003
K3D2 260415Z AUTO 31005KT 10SM OVC022 00/00 A2977 RMK AO2 T00001002
K3D2 260355Z AUTO 30005KT 10SM OVC020 00/00 A2977 RMK AO2 T00000000
K3D2 260335Z AUTO 30004KT 10SM UP SCT003 SCT013 OVC018 00/00 A2977 RMK AO2 T00000000
K3D2 260315Z AUTO 30004KT 3SM UP OVC003 00/00 A2977 RMK AO2 T00000000
K3D2 260255Z AUTO 00000KT 4SM BR OVC003 00/00 A2977 RMK AO2 T00000000
K3D2 260235Z AUTO 28003KT 7SM BKN003 OVC012 00/00 A2977 RMK AO2 T00010000
K3D2 260215Z AUTO 29003KT 10SM SCT003 BKN020 OVC032 00/00 A2977 RMK AO2 T00000000
K3D2 260155Z AUTO 31003KT 10SM SCT007 SCT013 OVC032 00/00 A2977 RMK AO2 T00010000
K3D2 260135Z AUTO 31003KT 10SM SCT009 OVC017 00/00 A2977 RMK AO2 T00010000
K3D2 260115Z AUTO 31004KT 10SM BKN008 OVC015 00/00 A2977 RMK AO2 T00010000
K3D2 260055Z AUTO 00000KT 10SM OVC008 00/00 A2978 RMK AO2 T00000000
K3D2 260035Z AUTO 28003KT 10SM BKN008 OVC014 00/00 A2978 RMK AO2 T00000000
K3D2 260015Z AUTO 30004KT 10SM SCT003 BKN014 OVC027 00/00 A2978 RMK AO2 T00000000
K3D2 252355Z AUTO 30003KT 10SM BKN006 OVC027 00/00 A2977 RMK AO2 T00001001 10000 21002
K3D2 252335Z AUTO 30004KT 5SM UP BKN008 OVC014 00/00 A2977 RMK AO2 T00000000
K3D2 252315Z AUTO 00000KT 10SM OVC012 00/00 A2976 RMK AO2 T00001001
K3D2 252135Z AUTO 35004KT 10SM -SN SCT003 OVC010 00/00 A2976 RMK AO2 T00000000
K3D2 252055Z AUTO 34006KT 1 1/2SM -SN OVC003 00/00 A2975 RMK AO2 T10011002
K3D2 252035Z AUTO 35006KT 1/4SM -RA OVC003 00/00 A2975 RMK AO2 T10011002
K3D2 252015Z AUTO 01004KT 1/4SM FG OVC003 00/00 A2975 RMK AO2 T00001001
K3D2 251935Z AUTO 01005KT 1/4SM FG OVC003 00/00 A2974 RMK AO2 T10011001
K3D2 251855Z AUTO 36005KT M1/4SM FG OVC003 00/00 A2975 RMK AO2 T10011002
K3D2 251755Z AUTO 35008KT M1/4SM FG OVC003 00/00 A2975 RMK AO2 T10011002 10000 21003
K3D2 251735Z AUTO 36007KT M1/4SM FG OVC003 00/00 A2976 RMK AO2 T10011002
K3D2 251715Z AUTO 01006KT M1/4SM FZFG OVC003 00/00 A2976 RMK AO2 T10021002
K3D2 251655Z AUTO 36007KT M1/4SM FZFG OVC003 00/00 A2977 RMK AO2 T10021002
K3D2 251635Z AUTO 36007KT M1/4SM FZFG OVC003 00/00 A2977 RMK AO2 T10021002
K3D2 251615Z AUTO 36007KT M1/4SM FG OVC003 00/00 A2977 RMK AO2 T10011002
K3D2 251535Z AUTO 34004KT M1/4SM FG OVC003 00/00 A2976 RMK AO2 T00001001
K3D2 251515Z AUTO 01003KT M1/4SM FG OVC003 00/00 A2976 RMK AO2 T10011002
K3D2 251455Z AUTO 36003KT M1/4SM FG OVC003 00/00 A2975 RMK AO2 T10011002
K3D2 251435Z AUTO 35003KT M1/4SM FZFG OVC003 00/00 A2975 RMK AO2 T10021002
K3D2 251415Z AUTO 35003KT M1/4SM FZFG OVC003 00/00 A2975 RMK AO2 T10021002
K3D2 251355Z AUTO 36003KT M1/4SM FG OVC003 00/00 A2976 RMK AO2 T10011002
K3D2 251335Z AUTO 35004KT M1/4SM FG OVC003 00/00 A2975 RMK AO2 T10021002
K3D2 251315Z AUTO 35003KT 1/4SM FZFG OVC003 00/00 A2975 RMK AO2 T10021003
K3D2 251255Z AUTO 35003KT 1/4SM FZFG OVC003 00/00 A2975 RMK AO2 T10021003
K3D2 251235Z AUTO 36004KT 1/4SM FZFG OVC003 00/00 A2974 RMK AO2 T10021003
K3D2 251215Z AUTO 35004KT 1/4SM FZFG OVC003 00/00 A2974 RMK AO2 T10031005
K3D2 251155Z AUTO 36003KT 1/4SM FZFG OVC003 00/00 A2974 RMK AO2 T10031005 11001 21003
K3D2 251135Z AUTO 00000KT 1/4SM FZFG OVC003 00/00 A2973 RMK AO2 T10031005
K3D2 251115Z AUTO 35003KT 1/4SM FZFG OVC003 00/00 A2974 RMK AO2 T10031005
K3D2 251055Z AUTO 35003KT 1/4SM FZFG OVC003 00/00 A2974 RMK AO2 T10031005
K3D2 251035Z AUTO 36003KT 3/4SM BR OVC003 00/00 A2973 RMK AO2 T10021003
K3D2 251015Z AUTO 00000KT 1 1/4SM BR OVC003 00/00 A2973 RMK AO2 T10021003
K3D2 250955Z AUTO 00000KT 5SM -SN OVC003 00/00 A2974 RMK AO2 T10021004
K3D2 250935Z AUTO 00000KT 5SM -SN OVC003 00/00 A2973 RMK AO2 T10021004
K3D2 250915Z AUTO 00000KT 3SM -SN OVC003 00/00 A2974 RMK AO2 T10021005
K3D2 250855Z AUTO 00000KT 2SM -SN OVC003 00/00 A2974 RMK AO2 T10021004
K3D2 250835Z AUTO 00000KT 2SM -SN OVC003 00/00 A2975 RMK AO2 T10021004
K3D2 250815Z AUTO 00000KT 1 3/4SM -SN OVC003 00/00 A2976 RMK AO2 T10021003
K3D2 250755Z AUTO 00000KT 4SM -SN OVC003 00/00 A2976 RMK AO2 T10021003
K3D2 250735Z AUTO 05003KT 2 1/2SM -SN OVC003 00/00 A2976 RMK AO2 T10021003
K3D2 250715Z AUTO 07005KT 1SM SN OVC003 00/00 A2976 RMK AO2 T10021004
K3D2 250655Z AUTO 07005KT 1 1/2SM -SN OVC003 00/00 A2977 RMK AO2 T10021004
K3D2 250635Z AUTO 07005KT 2SM -SN OVC003 00/00 A2977 RMK AO2 T10021005
K3D2 250615Z AUTO 07004KT 1SM -SN OVC003 00/00 A2978 RMK AO2 T10011004
K3D2 250555Z AUTO 07005KT 2SM -SN OVC003 00/00 A2978 RMK AO2 T00001002 10007 20000 400101001
K3D2 250535Z AUTO 06005KT 2SM -SN OVC003 00/00 A2979 RMK AO2 T00001001
K3D2 250455Z AUTO 08008KT 4SM -SN OVC003 00/00 A2980 RMK AO2 T00000000
K3D2 250435Z AUTO 07007KT 4SM -SN OVC003 00/00 A2980 RMK AO2 T00001001
K3D2 250255Z AUTO 07008KT 5SM UP OVC003 00/00 A2983 RMK AO2 T00010000
K3D2 250235Z AUTO 07008KT 7SM -SN OVC003 00/00 A2984 RMK AO2 T00010000
K3D2 250215Z AUTO 07009KT 5SM -SN OVC003 00/00 A2984 RMK AO2 T00010000
K3D2 250155Z AUTO 08007KT 7SM -RA OVC003 00/00 A2985 RMK AO2 T00020000
K3D2 250135Z AUTO 07008KT 3SM -RA OVC003 01/00 A2985 RMK AO2 T00060004
K3D2 250115Z AUTO 07006KT 3SM BR OVC003 01/00 A2985 RMK AO2 T00060003
K3D2 250055Z AUTO 07008KT 5SM BR OVC003 01/01 A2986 RMK AO2 T00070005
K3D2 250035Z AUTO 08007G14KT 3SM -RA OVC003 01/00 A2986 RMK AO2 T00060004
K3D2 250015Z AUTO 07008KT 5SM -RA OVC003 01/00 A2987 RMK AO2 T00050002
K3D2 242355Z AUTO 07007KT 4SM -RA OVC003 01/00 A2988 RMK AO2 T00050001 10010 20003
K3D2 242335Z AUTO 07006KT 5SM -SN OVC003 00/00 A2988 RMK AO2 T00030000
K3D2 242315Z AUTO 08007KT 5SM UP OVC003 00/00 A2988 RMK AO2 T00040000
K3D2 242255Z AUTO 07009G15KT 5SM -RA OVC003 01/00 A2988 RMK AO2 T00050002
K3D2 242235Z AUTO 08007G14KT 3SM -RA OVC003 01/01 A2988 RMK AO2 T00070005
K3D2 242215Z AUTO 08009G15KT 2 1/2SM RA OVC003 01/01 A2989 RMK AO2 T00080005
K3D2 242155Z AUTO 07009KT 2SM -RA OVC003 01/01 A2989 RMK AO2 T00100005
K3D2 242135Z AUTO 08007KT 2 1/2SM -RA OVC003 01/01 A2990 RMK AO2 T00100005
K3D2 242115Z AUTO 08008KT 2SM BR OVC003 01/01 A2990 RMK AO2 T00100005
K3D2 242055Z AUTO 08010G16KT 2 1/2SM BR OVC003 01/00 A2990 RMK AO2 T00100004